sensor_id;sensor_type;location;lat;lon;timestamp;temperature;humidity
15013;DHT22;7603;49.432;11.418;2023-05-07T00:00:36;9.40;99.90
15013;DHT22;7603;49.432;11.418;2023-05-07T00:03:01;9.40;99.90
15013;DHT22;7603;49.432;11.418;2023-05-07T00:05:27;9.50;99.90
15013;DHT22;7603;49.432;11.418;2023-05-07T00:07:52;9.50;99.90
15013;DHT22;7603;49.432;11.418;2023-05-07T00:10:18;9.50;99.90
15013;DHT22;7603;49.432;11.418;2023-05-07T00:12:44;9.50;99.90
15013;DHT22;7603;49.432;11.418;2023-05-07T00:15:10;9.50;99.90
15013;DHT22;7603;49.432;11.418;2023-05-07T00:17:36;9.50;99.90
15013;DHT22;7603;49.432;11.418;2023-05-07T00:20:03;9.70;99.90
15013;DHT22;7603;49.432;11.418;2023-05-07T00:22:30;9.60;99.90
15013;DHT22;7603;49.432;11.418;2023-05-07T00:24:56;9.70;99.90
15013;DHT22;7603;49.432;11.418;2023-05-07T00:27:22;9.60;99.90
15013;DHT22;7603;49.432;11.418;2023-05-07T00:29:48;9.60;99.90
15013;DHT22;7603;49.432;11.418;2023-05-07T00:32:13;9.70;99.90
15013;DHT22;7603;49.432;11.418;2023-05-07T00:34:39;9.70;99.90
15013;DHT22;7603;49.432;11.418;2023-05-07T00:37:05;9.80;99.90
15013;DHT22;7603;49.432;11.418;2023-05-07T00:39:33;9.80;99.90
15013;DHT22;7603;49.432;11.418;2023-05-07T00:41:59;9.90;99.90
15013;DHT22;7603;49.432;11.418;2023-05-07T00:44:26;10.00;99.90
15013;DHT22;7603;49.432;11.418;2023-05-07T00:46:52;10.10;99.90
15013;DHT22;7603;49.432;11.418;2023-05-07T00:49:18;10.20;99.90
15013;DHT22;7603;49.432;11.418;2023-05-07T00:51:45;10.30;99.90
15013;DHT22;7603;49.432;11.418;2023-05-07T00:54:11;10.40;99.90
15013;DHT22;7603;49.432;11.418;2023-05-07T00:56:38;10.50;99.90
15013;DHT22;7603;49.432;11.418;2023-05-07T00:59:05;10.50;99.90
15013;DHT22;7603;49.432;11.418;2023-05-07T01:01:31;10.60;99.90
15013;DHT22;7603;49.432;11.418;2023-05-07T01:03:57;10.70;99.90
15013;DHT22;7603;49.432;11.418;2023-05-07T01:06:24;10.70;99.90
15013;DHT22;7603;49.432;11.418;2023-05-07T01:08:51;10.80;99.90
15013;DHT22;7603;49.432;11.418;2023-05-07T01:11:18;10.90;99.90
15013;DHT22;7603;49.432;11.418;2023-05-07T01:13:46;10.90;99.90
15013;DHT22;7603;49.432;11.418;2023-05-07T01:16:12;11.10;99.90
15013;DHT22;7603;49.432;11.418;2023-05-07T01:18:38;11.10;99.90
15013;DHT22;7603;49.432;11.418;2023-05-07T01:21:06;11.20;99.90
15013;DHT22;7603;49.432;11.418;2023-05-07T01:23:33;11.30;99.90
15013;DHT22;7603;49.432;11.418;2023-05-07T01:26:00;11.40;99.90
15013;DHT22;7603;49.432;11.418;2023-05-07T01:28:26;11.50;99.90
15013;DHT22;7603;49.432;11.418;2023-05-07T01:30:54;11.50;99.90
15013;DHT22;7603;49.432;11.418;2023-05-07T01:33:21;11.50;99.90
15013;DHT22;7603;49.432;11.418;2023-05-07T01:35:50;11.50;99.90
15013;DHT22;7603;49.432;11.418;2023-05-07T01:38:17;11.60;99.90
15013;DHT22;7603;49.432;11.418;2023-05-07T01:40:44;11.50;99.90
15013;DHT22;7603;49.432;11.418;2023-05-07T01:43:10;11.70;99.90
15013;DHT22;7603;49.432;11.418;2023-05-07T01:45:36;11.80;99.90
15013;DHT22;7603;49.432;11.418;2023-05-07T01:48:03;11.80;99.90
15013;DHT22;7603;49.432;11.418;2023-05-07T01:50:30;11.80;99.90
15013;DHT22;7603;49.432;11.418;2023-05-07T01:52:56;11.80;99.90
15013;DHT22;7603;49.432;11.418;2023-05-07T01:55:22;11.80;99.90
15013;DHT22;7603;49.432;11.418;2023-05-07T01:57:48;11.80;99.90
15013;DHT22;7603;49.432;11.418;2023-05-07T02:00:13;11.70;99.90
15013;DHT22;7603;49.432;11.418;2023-05-07T02:02:39;11.80;99.90
15013;DHT22;7603;49.432;11.418;2023-05-07T02:05:05;11.80;99.90
15013;DHT22;7603;49.432;11.418;2023-05-07T02:07:31;11.90;99.90
15013;DHT22;7603;49.432;11.418;2023-05-07T02:09:56;11.90;99.90
15013;DHT22;7603;49.432;11.418;2023-05-07T02:12:22;11.90;99.90
15013;DHT22;7603;49.432;11.418;2023-05-07T02:14:48;11.90;99.90
15013;DHT22;7603;49.432;11.418;2023-05-07T02:17:14;11.90;99.90
15013;DHT22;7603;49.432;11.418;2023-05-07T02:19:40;11.90;99.90
15013;DHT22;7603;49.432;11.418;2023-05-07T02:22:05;11.90;99.90
15013;DHT22;7603;49.432;11.418;2023-05-07T02:24:31;11.90;99.90
15013;DHT22;7603;49.432;11.418;2023-05-07T02:26:56;12.00;99.90
15013;DHT22;7603;49.432;11.418;2023-05-07T02:29:22;12.00;99.90
15013;DHT22;7603;49.432;11.418;2023-05-07T02:31:47;12.00;99.90
15013;DHT22;7603;49.432;11.418;2023-05-07T02:34:18;12.00;99.90
15013;DHT22;7603;49.432;11.418;2023-05-07T02:36:44;12.00;99.90
15013;DHT22;7603;49.432;11.418;2023-05-07T02:39:09;12.00;99.90
15013;DHT22;7603;49.432;11.418;2023-05-07T02:41:35;12.00;99.90
15013;DHT22;7603;49.432;11.418;2023-05-07T02:44:01;12.00;99.90
15013;DHT22;7603;49.432;11.418;2023-05-07T02:46:26;11.90;99.90
15013;DHT22;7603;49.432;11.418;2023-05-07T02:48:52;11.90;99.90
15013;DHT22;7603;49.432;11.418;2023-05-07T02:51:20;11.80;99.90
15013;DHT22;7603;49.432;11.418;2023-05-07T02:53:45;11.70;99.90
15013;DHT22;7603;49.432;11.418;2023-05-07T02:56:11;11.70;99.90
15013;DHT22;7603;49.432;11.418;2023-05-07T02:58:37;11.60;99.90
15013;DHT22;7603;49.432;11.418;2023-05-07T03:01:05;11.60;99.90
15013;DHT22;7603;49.432;11.418;2023-05-07T03:03:31;11.50;99.90
15013;DHT22;7603;49.432;11.418;2023-05-07T03:05:57;11.40;99.90
15013;DHT22;7603;49.432;11.418;2023-05-07T03:08:22;11.30;99.90
15013;DHT22;7603;49.432;11.418;2023-05-07T03:10:48;11.20;99.90
15013;DHT22;7603;49.432;11.418;2023-05-07T03:13:14;11.10;99.90
15013;DHT22;7603;49.432;11.418;2023-05-07T03:15:40;11.10;99.90
15013;DHT22;7603;49.432;11.418;2023-05-07T03:18:05;11.00;99.90
15013;DHT22;7603;49.432;11.418;2023-05-07T03:20:31;11.00;99.90
15013;DHT22;7603;49.432;11.418;2023-05-07T03:22:57;10.90;99.90
15013;DHT22;7603;49.432;11.418;2023-05-07T03:25:23;10.90;99.90
15013;DHT22;7603;49.432;11.418;2023-05-07T03:27:48;10.90;99.90
15013;DHT22;7603;49.432;11.418;2023-05-07T03:30:14;10.80;99.90
15013;DHT22;7603;49.432;11.418;2023-05-07T03:32:39;10.80;99.90
15013;DHT22;7603;49.432;11.418;2023-05-07T03:35:06;10.80;99.90
15013;DHT22;7603;49.432;11.418;2023-05-07T03:37:31;10.80;99.90
15013;DHT22;7603;49.432;11.418;2023-05-07T03:39:57;10.70;99.90
15013;DHT22;7603;49.432;11.418;2023-05-07T03:42:23;10.70;99.90
15013;DHT22;7603;49.432;11.418;2023-05-07T03:44:48;10.60;99.90
15013;DHT22;7603;49.432;11.418;2023-05-07T03:47:14;10.50;99.90
15013;DHT22;7603;49.432;11.418;2023-05-07T03:49:40;10.40;99.90
15013;DHT22;7603;49.432;11.418;2023-05-07T03:52:06;10.40;99.90
15013;DHT22;7603;49.432;11.418;2023-05-07T03:54:31;10.40;99.90
15013;DHT22;7603;49.432;11.418;2023-05-07T03:56:57;10.40;99.90
15013;DHT22;7603;49.432;11.418;2023-05-07T03:59:23;10.50;99.90
15013;DHT22;7603;49.432;11.418;2023-05-07T04:01:48;10.40;99.90
15013;DHT22;7603;49.432;11.418;2023-05-07T04:04:14;10.50;99.90
15013;DHT22;7603;49.432;11.418;2023-05-07T04:06:41;10.50;99.90
15013;DHT22;7603;49.432;11.418;2023-05-07T04:09:06;10.50;99.90
15013;DHT22;7603;49.432;11.418;2023-05-07T04:11:32;10.50;99.90
15013;DHT22;7603;49.432;11.418;2023-05-07T04:13:58;10.50;99.90
15013;DHT22;7603;49.432;11.418;2023-05-07T04:16:23;10.40;99.90
15013;DHT22;7603;49.432;11.418;2023-05-07T04:18:49;10.40;99.90
15013;DHT22;7603;49.432;11.418;2023-05-07T04:21:18;10.40;99.90
15013;DHT22;7603;49.432;11.418;2023-05-07T04:23:45;10.30;99.90
15013;DHT22;7603;49.432;11.418;2023-05-07T04:26:11;10.40;99.90
15013;DHT22;7603;49.432;11.418;2023-05-07T04:28:36;10.30;99.90
15013;DHT22;7603;49.432;11.418;2023-05-07T04:31:02;10.30;99.90
15013;DHT22;7603;49.432;11.418;2023-05-07T04:33:28;10.40;99.90
15013;DHT22;7603;49.432;11.418;2023-05-07T04:35:53;10.40;99.90
15013;DHT22;7603;49.432;11.418;2023-05-07T04:38:19;10.50;99.90
15013;DHT22;7603;49.432;11.418;2023-05-07T04:40:45;10.60;99.90
15013;DHT22;7603;49.432;11.418;2023-05-07T04:43:12;10.70;99.90
15013;DHT22;7603;49.432;11.418;2023-05-07T04:45:38;10.80;99.90
15013;DHT22;7603;49.432;11.418;2023-05-07T04:48:06;10.90;99.90
15013;DHT22;7603;49.432;11.418;2023-05-07T04:50:32;11.00;99.90
15013;DHT22;7603;49.432;11.418;2023-05-07T04:52:58;11.10;99.90
15013;DHT22;7603;49.432;11.418;2023-05-07T04:55:24;11.30;99.90
15013;DHT22;7603;49.432;11.418;2023-05-07T04:57:50;11.40;99.90
15013;DHT22;7603;49.432;11.418;2023-05-07T05:00:16;11.50;99.90
15013;DHT22;7603;49.432;11.418;2023-05-07T05:02:42;11.70;99.90
15013;DHT22;7603;49.432;11.418;2023-05-07T05:05:07;11.80;99.90
15013;DHT22;7603;49.432;11.418;2023-05-07T05:07:33;11.90;99.90
15013;DHT22;7603;49.432;11.418;2023-05-07T05:09:59;12.10;99.90
15013;DHT22;7603;49.432;11.418;2023-05-07T05:12:25;12.30;99.90
15013;DHT22;7603;49.432;11.418;2023-05-07T05:14:50;12.50;99.90
15013;DHT22;7603;49.432;11.418;2023-05-07T05:17:16;12.70;99.90
15013;DHT22;7603;49.432;11.418;2023-05-07T05:19:42;12.90;99.90
15013;DHT22;7603;49.432;11.418;2023-05-07T05:22:07;13.10;99.90
15013;DHT22;7603;49.432;11.418;2023-05-07T05:24:33;13.30;99.90
15013;DHT22;7603;49.432;11.418;2023-05-07T05:26:58;13.50;99.90
15013;DHT22;7603;49.432;11.418;2023-05-07T05:29:26;13.70;99.90
15013;DHT22;7603;49.432;11.418;2023-05-07T05:31:52;13.80;99.90
15013;DHT22;7603;49.432;11.418;2023-05-07T05:34:17;13.90;99.90
15013;DHT22;7603;49.432;11.418;2023-05-07T05:36:45;14.10;99.90
15013;DHT22;7603;49.432;11.418;2023-05-07T05:39:11;14.10;99.90
15013;DHT22;7603;49.432;11.418;2023-05-07T05:41:36;14.20;99.90
15013;DHT22;7603;49.432;11.418;2023-05-07T05:44:02;14.20;99.90
15013;DHT22;7603;49.432;11.418;2023-05-07T05:46:28;14.30;99.90
15013;DHT22;7603;49.432;11.418;2023-05-07T05:48:53;14.40;99.90
15013;DHT22;7603;49.432;11.418;2023-05-07T05:51:20;14.50;99.90
15013;DHT22;7603;49.432;11.418;2023-05-07T05:53:46;14.70;99.90
15013;DHT22;7603;49.432;11.418;2023-05-07T05:56:12;14.90;99.90
15013;DHT22;7603;49.432;11.418;2023-05-07T05:58:37;15.10;99.90
15013;DHT22;7603;49.432;11.418;2023-05-07T06:01:03;15.40;99.90
15013;DHT22;7603;49.432;11.418;2023-05-07T06:03:30;15.60;99.90
15013;DHT22;7603;49.432;11.418;2023-05-07T06:05:57;15.90;99.90
15013;DHT22;7603;49.432;11.418;2023-05-07T06:08:23;16.10;99.90
15013;DHT22;7603;49.432;11.418;2023-05-07T06:10:49;16.40;99.90
15013;DHT22;7603;49.432;11.418;2023-05-07T06:13:14;16.60;99.90
15013;DHT22;7603;49.432;11.418;2023-05-07T06:15:40;16.70;99.90
15013;DHT22;7603;49.432;11.418;2023-05-07T06:18:06;16.80;99.90
15013;DHT22;7603;49.432;11.418;2023-05-07T06:20:31;17.00;99.90
15013;DHT22;7603;49.432;11.418;2023-05-07T06:22:57;17.00;99.90
15013;DHT22;7603;49.432;11.418;2023-05-07T06:25:22;17.10;99.90
15013;DHT22;7603;49.432;11.418;2023-05-07T06:27:48;17.20;99.90
15013;DHT22;7603;49.432;11.418;2023-05-07T06:30:14;17.30;99.90
15013;DHT22;7603;49.432;11.418;2023-05-07T06:32:40;17.40;99.90
15013;DHT22;7603;49.432;11.418;2023-05-07T06:35:06;17.40;99.90
15013;DHT22;7603;49.432;11.418;2023-05-07T06:37:32;17.50;99.90
15013;DHT22;7603;49.432;11.418;2023-05-07T06:39:58;17.70;99.90
15013;DHT22;7603;49.432;11.418;2023-05-07T06:42:23;17.80;99.90
15013;DHT22;7603;49.432;11.418;2023-05-07T06:44:49;17.80;99.90
15013;DHT22;7603;49.432;11.418;2023-05-07T06:47:14;17.70;99.90
15013;DHT22;7603;49.432;11.418;2023-05-07T06:49:40;17.60;99.90
15013;DHT22;7603;49.432;11.418;2023-05-07T06:52:06;17.70;99.90
15013;DHT22;7603;49.432;11.418;2023-05-07T06:54:31;17.70;99.90
15013;DHT22;7603;49.432;11.418;2023-05-07T06:56:57;17.80;99.90
15013;DHT22;7603;49.432;11.418;2023-05-07T06:59:23;17.90;99.90
15013;DHT22;7603;49.432;11.418;2023-05-07T07:01:49;18.10;99.90
15013;DHT22;7603;49.432;11.418;2023-05-07T07:04:14;18.30;99.90
15013;DHT22;7603;49.432;11.418;2023-05-07T07:06:40;18.40;99.90
15013;DHT22;7603;49.432;11.418;2023-05-07T07:09:06;18.60;99.90
15013;DHT22;7603;49.432;11.418;2023-05-07T07:11:31;18.70;99.90
15013;DHT22;7603;49.432;11.418;2023-05-07T07:13:57;18.80;99.90
15013;DHT22;7603;49.432;11.418;2023-05-07T07:16:24;19.10;99.90
15013;DHT22;7603;49.432;11.418;2023-05-07T07:18:50;19.20;99.90
15013;DHT22;7603;49.432;11.418;2023-05-07T07:21:15;19.30;99.90
15013;DHT22;7603;49.432;11.418;2023-05-07T07:23:41;19.50;99.90
15013;DHT22;7603;49.432;11.418;2023-05-07T07:26:07;19.60;99.90
15013;DHT22;7603;49.432;11.418;2023-05-07T07:28:32;19.70;99.90
15013;DHT22;7603;49.432;11.418;2023-05-07T07:30:58;19.70;99.90
15013;DHT22;7603;49.432;11.418;2023-05-07T07:33:23;19.70;99.90
15013;DHT22;7603;49.432;11.418;2023-05-07T07:35:49;19.60;99.90
15013;DHT22;7603;49.432;11.418;2023-05-07T07:38:15;19.70;99.90
15013;DHT22;7603;49.432;11.418;2023-05-07T07:40:40;19.80;99.90
15013;DHT22;7603;49.432;11.418;2023-05-07T07:43:06;19.90;99.90
15013;DHT22;7603;49.432;11.418;2023-05-07T07:45:31;20.00;99.90
15013;DHT22;7603;49.432;11.418;2023-05-07T07:47:57;20.20;99.90
15013;DHT22;7603;49.432;11.418;2023-05-07T07:50:23;20.50;99.60
15013;DHT22;7603;49.432;11.418;2023-05-07T07:52:48;20.90;98.70
15013;DHT22;7603;49.432;11.418;2023-05-07T07:55:14;21.30;98.00
15013;DHT22;7603;49.432;11.418;2023-05-07T07:57:43;21.70;97.00
15013;DHT22;7603;49.432;11.418;2023-05-07T08:00:09;22.10;95.40
15013;DHT22;7603;49.432;11.418;2023-05-07T08:02:35;22.40;93.80
15013;DHT22;7603;49.432;11.418;2023-05-07T08:05:00;22.70;92.30
15013;DHT22;7603;49.432;11.418;2023-05-07T08:07:26;22.90;91.40
15013;DHT22;7603;49.432;11.418;2023-05-07T08:09:51;23.20;90.70
15013;DHT22;7603;49.432;11.418;2023-05-07T08:12:17;23.60;89.70
15013;DHT22;7603;49.432;11.418;2023-05-07T08:14:43;24.00;86.90
15013;DHT22;7603;49.432;11.418;2023-05-07T08:17:08;24.50;84.10
15013;DHT22;7603;49.432;11.418;2023-05-07T08:19:35;24.70;80.90
15013;DHT22;7603;49.432;11.418;2023-05-07T08:22:02;25.00;78.40
15013;DHT22;7603;49.432;11.418;2023-05-07T08:24:28;25.20;76.10
15013;DHT22;7603;49.432;11.418;2023-05-07T08:26:53;25.30;74.00
15013;DHT22;7603;49.432;11.418;2023-05-07T08:29:19;25.30;73.20
15013;DHT22;7603;49.432;11.418;2023-05-07T08:31:45;25.30;72.60
15013;DHT22;7603;49.432;11.418;2023-05-07T08:34:11;25.40;71.90
15013;DHT22;7603;49.432;11.418;2023-05-07T08:36:36;25.40;71.70
15013;DHT22;7603;49.432;11.418;2023-05-07T08:39:02;25.40;70.90
15013;DHT22;7603;49.432;11.418;2023-05-07T08:41:28;25.50;70.40
15013;DHT22;7603;49.432;11.418;2023-05-07T08:43:57;25.70;69.50
15013;DHT22;7603;49.432;11.418;2023-05-07T08:46:25;25.80;68.60
15013;DHT22;7603;49.432;11.418;2023-05-07T08:48:52;25.90;67.90
15013;DHT22;7603;49.432;11.418;2023-05-07T08:51:19;26.00;67.40
15013;DHT22;7603;49.432;11.418;2023-05-07T08:53:47;26.20;66.70
15013;DHT22;7603;49.432;11.418;2023-05-07T08:56:16;26.40;65.40
15013;DHT22;7603;49.432;11.418;2023-05-07T08:58:43;26.40;64.20
15013;DHT22;7603;49.432;11.418;2023-05-07T09:01:13;26.50;63.80
15013;DHT22;7603;49.432;11.418;2023-05-07T09:03:39;26.80;63.10
15013;DHT22;7603;49.432;11.418;2023-05-07T09:06:05;27.30;61.60
15013;DHT22;7603;49.432;11.418;2023-05-07T09:08:33;27.70;58.80
15013;DHT22;7603;49.432;11.418;2023-05-07T09:10:59;27.80;58.40
15013;DHT22;7603;49.432;11.418;2023-05-07T09:13:25;28.00;58.20
15013;DHT22;7603;49.432;11.418;2023-05-07T09:15:52;28.30;57.40
15013;DHT22;7603;49.432;11.418;2023-05-07T09:18:17;28.80;56.70
15013;DHT22;7603;49.432;11.418;2023-05-07T09:20:43;29.30;56.10
15013;DHT22;7603;49.432;11.418;2023-05-07T09:23:09;29.60;54.50
15013;DHT22;7603;49.432;11.418;2023-05-07T09:25:35;29.80;53.50
15013;DHT22;7603;49.432;11.418;2023-05-07T09:28:03;29.90;53.10
15013;DHT22;7603;49.432;11.418;2023-05-07T09:30:33;30.10;53.10
15013;DHT22;7603;49.432;11.418;2023-05-07T09:32:59;30.10;52.10
15013;DHT22;7603;49.432;11.418;2023-05-07T09:35:25;30.00;51.50
15013;DHT22;7603;49.432;11.418;2023-05-07T09:37:53;30.00;51.60
15013;DHT22;7603;49.432;11.418;2023-05-07T09:40:27;30.10;51.10
15013;DHT22;7603;49.432;11.418;2023-05-07T09:42:52;30.30;50.90
15013;DHT22;7603;49.432;11.418;2023-05-07T09:45:25;30.60;50.00
15013;DHT22;7603;49.432;11.418;2023-05-07T09:47:54;31.00;49.00
15013;DHT22;7603;49.432;11.418;2023-05-07T09:50:26;31.10;48.60
15013;DHT22;7603;49.432;11.418;2023-05-07T09:52:54;31.00;48.20
15013;DHT22;7603;49.432;11.418;2023-05-07T09:55:20;30.80;48.10
15013;DHT22;7603;49.432;11.418;2023-05-07T09:57:46;30.50;48.60
15013;DHT22;7603;49.432;11.418;2023-05-07T10:00:12;30.70;48.90
15013;DHT22;7603;49.432;11.418;2023-05-07T10:02:39;31.10;47.90
15013;DHT22;7603;49.432;11.418;2023-05-07T10:05:12;31.40;46.10
15013;DHT22;7603;49.432;11.418;2023-05-07T10:07:39;31.20;46.20
15013;DHT22;7603;49.432;11.418;2023-05-07T10:10:06;31.00;46.50
15013;DHT22;7603;49.432;11.418;2023-05-07T10:12:33;30.90;45.60
15013;DHT22;7603;49.432;11.418;2023-05-07T10:15:08;30.50;46.50
15013;DHT22;7603;49.432;11.418;2023-05-07T10:17:36;30.00;46.80
15013;DHT22;7603;49.432;11.418;2023-05-07T10:20:02;29.90;47.10
15013;DHT22;7603;49.432;11.418;2023-05-07T10:22:32;30.50;47.10
15013;DHT22;7603;49.432;11.418;2023-05-07T10:25:02;31.90;45.20
15013;DHT22;7603;49.432;11.418;2023-05-07T10:27:29;33.90;44.00
15013;DHT22;7603;49.432;11.418;2023-05-07T10:30:12;35.50;40.20
15013;DHT22;7603;49.432;11.418;2023-05-07T10:32:43;36.90;38.20
15013;DHT22;7603;49.432;11.418;2023-05-07T10:35:19;38.50;36.60
15013;DHT22;7603;49.432;11.418;2023-05-07T10:37:46;39.00;33.10
15013;DHT22;7603;49.432;11.418;2023-05-07T10:40:12;38.30;33.20
15013;DHT22;7603;49.432;11.418;2023-05-07T10:42:38;37.70;33.40
15013;DHT22;7603;49.432;11.418;2023-05-07T10:45:15;37.40;34.00
15013;DHT22;7603;49.432;11.418;2023-05-07T10:48:05;36.70;34.00
15013;DHT22;7603;49.432;11.418;2023-05-07T10:50:31;35.60;35.30
15013;DHT22;7603;49.432;11.418;2023-05-07T10:55:46;34.20;37.30
15013;DHT22;7603;49.432;11.418;2023-05-07T10:58:29;34.20;37.90
15013;DHT22;7603;49.432;11.418;2023-05-07T11:01:00;34.00;38.30
15013;DHT22;7603;49.432;11.418;2023-05-07T11:03:27;33.70;38.10
15013;DHT22;7603;49.432;11.418;2023-05-07T11:11:18;33.70;38.40
15013;DHT22;7603;49.432;11.418;2023-05-07T11:13:46;33.90;38.40
15013;DHT22;7603;49.432;11.418;2023-05-07T11:16:25;34.00;37.90
15013;DHT22;7603;49.432;11.418;2023-05-07T11:18:54;33.60;37.90
15013;DHT22;7603;49.432;11.418;2023-05-07T11:21:39;32.90;38.60
15013;DHT22;7603;49.432;11.418;2023-05-07T11:24:09;32.50;39.30
15013;DHT22;7603;49.432;11.418;2023-05-07T11:29:19;32.50;38.80
15013;DHT22;7603;49.432;11.418;2023-05-07T11:31:52;32.30;39.20
15013;DHT22;7603;49.432;11.418;2023-05-07T11:34:22;32.10;39.70
15013;DHT22;7603;49.432;11.418;2023-05-07T11:36:48;32.00;39.50
15013;DHT22;7603;49.432;11.418;2023-05-07T11:39:31;32.40;39.10
15013;DHT22;7603;49.432;11.418;2023-05-07T11:41:59;33.10;38.50
15013;DHT22;7603;49.432;11.418;2023-05-07T11:44:25;33.60;38.10
15013;DHT22;7603;49.432;11.418;2023-05-07T11:47:04;33.80;37.80
15013;DHT22;7603;49.432;11.418;2023-05-07T11:49:30;33.40;36.40
15013;DHT22;7603;49.432;11.418;2023-05-07T11:51:56;33.00;36.80
15013;DHT22;7603;49.432;11.418;2023-05-07T11:54:22;32.50;37.30
15013;DHT22;7603;49.432;11.418;2023-05-07T11:56:47;32.10;37.60
15013;DHT22;7603;49.432;11.418;2023-05-07T11:59:17;31.90;38.40
15013;DHT22;7603;49.432;11.418;2023-05-07T12:01:45;32.00;38.70
15013;DHT22;7603;49.432;11.418;2023-05-07T12:04:11;32.50;39.50
15013;DHT22;7603;49.432;11.418;2023-05-07T12:06:37;33.70;38.60
15013;DHT22;7603;49.432;11.418;2023-05-07T12:09:04;34.80;36.80
15013;DHT22;7603;49.432;11.418;2023-05-07T12:11:30;34.90;36.20
15013;DHT22;7603;49.432;11.418;2023-05-07T12:13:55;34.60;35.30
15013;DHT22;7603;49.432;11.418;2023-05-07T12:16:21;34.30;35.80
15013;DHT22;7603;49.432;11.418;2023-05-07T12:18:47;34.40;36.30
15013;DHT22;7603;49.432;11.418;2023-05-07T12:21:13;35.20;35.30
15013;DHT22;7603;49.432;11.418;2023-05-07T12:23:39;36.50;34.40
15013;DHT22;7603;49.432;11.418;2023-05-07T12:26:05;38.00;32.90
15013;DHT22;7603;49.432;11.418;2023-05-07T12:28:35;39.10;31.10
15013;DHT22;7603;49.432;11.418;2023-05-07T12:31:01;40.00;29.60
15013;DHT22;7603;49.432;11.418;2023-05-07T12:33:27;40.80;28.60
15013;DHT22;7603;49.432;11.418;2023-05-07T12:35:54;41.30;27.90
15013;DHT22;7603;49.432;11.418;2023-05-07T12:38:20;41.30;28.40
15013;DHT22;7603;49.432;11.418;2023-05-07T12:40:48;40.80;28.10
15013;DHT22;7603;49.432;11.418;2023-05-07T12:43:27;39.70;28.20
15013;DHT22;7603;49.432;11.418;2023-05-07T12:45:55;38.00;29.20
15013;DHT22;7603;49.432;11.418;2023-05-07T12:48:21;36.60;31.20
15013;DHT22;7603;49.432;11.418;2023-05-07T12:50:51;35.60;31.40
15013;DHT22;7603;49.432;11.418;2023-05-07T12:53:21;34.80;32.20
15013;DHT22;7603;49.432;11.418;2023-05-07T12:55:49;33.90;33.40
15013;DHT22;7603;49.432;11.418;2023-05-07T12:58:28;33.20;34.00
15013;DHT22;7603;49.432;11.418;2023-05-07T13:00:54;32.50;35.10
15013;DHT22;7603;49.432;11.418;2023-05-07T13:03:24;32.00;36.20
15013;DHT22;7603;49.432;11.418;2023-05-07T13:05:51;31.60;37.40
15013;DHT22;7603;49.432;11.418;2023-05-07T13:08:36;31.20;37.70
15013;DHT22;7603;49.432;11.418;2023-05-07T13:11:03;31.00;38.50
15013;DHT22;7603;49.432;11.418;2023-05-07T13:13:34;30.80;38.70
15013;DHT22;7603;49.432;11.418;2023-05-07T13:16:02;30.70;39.50
15013;DHT22;7603;49.432;11.418;2023-05-07T13:18:32;30.60;39.20
15013;DHT22;7603;49.432;11.418;2023-05-07T13:21:00;30.60;39.10
15013;DHT22;7603;49.432;11.418;2023-05-07T13:23:26;30.70;39.50
15013;DHT22;7603;49.432;11.418;2023-05-07T13:25:52;30.80;39.50
15013;DHT22;7603;49.432;11.418;2023-05-07T13:28:19;31.00;39.40
15013;DHT22;7603;49.432;11.418;2023-05-07T13:30:46;31.50;38.70
15013;DHT22;7603;49.432;11.418;2023-05-07T13:33:11;32.70;38.00
15013;DHT22;7603;49.432;11.418;2023-05-07T13:35:37;34.50;36.30
15013;DHT22;7603;49.432;11.418;2023-05-07T13:38:03;36.50;34.90
15013;DHT22;7603;49.432;11.418;2023-05-07T13:40:29;38.40;32.90
15013;DHT22;7603;49.432;11.418;2023-05-07T13:42:57;39.90;31.50
15013;DHT22;7603;49.432;11.418;2023-05-07T13:45:24;40.40;30.00
15013;DHT22;7603;49.432;11.418;2023-05-07T13:47:51;39.70;29.60
15013;DHT22;7603;49.432;11.418;2023-05-07T13:50:17;38.30;29.90
15013;DHT22;7603;49.432;11.418;2023-05-07T13:52:44;36.90;30.80
15013;DHT22;7603;49.432;11.418;2023-05-07T13:55:20;35.50;32.20
15013;DHT22;7603;49.432;11.418;2023-05-07T13:57:46;34.20;33.90
15013;DHT22;7603;49.432;11.418;2023-05-07T14:00:13;33.20;34.70
15013;DHT22;7603;49.432;11.418;2023-05-07T14:02:39;32.50;35.80
15013;DHT22;7603;49.432;11.418;2023-05-07T14:05:05;32.40;36.30
15013;DHT22;7603;49.432;11.418;2023-05-07T14:07:30;32.30;36.60
15013;DHT22;7603;49.432;11.418;2023-05-07T14:09:56;32.20;37.10
15013;DHT22;7603;49.432;11.418;2023-05-07T14:12:22;32.10;37.20
15013;DHT22;7603;49.432;11.418;2023-05-07T14:14:48;31.90;37.70
15013;DHT22;7603;49.432;11.418;2023-05-07T14:17:16;31.90;37.90
15013;DHT22;7603;49.432;11.418;2023-05-07T14:19:42;31.60;38.10
15013;DHT22;7603;49.432;11.418;2023-05-07T14:22:08;31.30;39.10
15013;DHT22;7603;49.432;11.418;2023-05-07T14:24:33;31.00;39.70
15013;DHT22;7603;49.432;11.418;2023-05-07T14:26:59;30.80;40.00
15013;DHT22;7603;49.432;11.418;2023-05-07T14:29:25;30.70;40.20
15013;DHT22;7603;49.432;11.418;2023-05-07T14:31:51;30.40;40.40
15013;DHT22;7603;49.432;11.418;2023-05-07T14:34:16;30.20;40.40
15013;DHT22;7603;49.432;11.418;2023-05-07T14:36:42;30.20;40.30
15013;DHT22;7603;49.432;11.418;2023-05-07T14:39:09;30.50;40.40
15013;DHT22;7603;49.432;11.418;2023-05-07T14:41:35;31.00;40.00
15013;DHT22;7603;49.432;11.418;2023-05-07T14:44:00;31.90;38.90
15013;DHT22;7603;49.432;11.418;2023-05-07T14:46:27;32.90;37.40
15013;DHT22;7603;49.432;11.418;2023-05-07T14:48:52;34.10;36.50
15013;DHT22;7603;49.432;11.418;2023-05-07T14:51:18;35.50;34.90
15013;DHT22;7603;49.432;11.418;2023-05-07T14:53:44;36.50;33.50
15013;DHT22;7603;49.432;11.418;2023-05-07T14:56:09;37.40;32.60
15013;DHT22;7603;49.432;11.418;2023-05-07T14:58:35;38.30;31.70
15013;DHT22;7603;49.432;11.418;2023-05-07T15:01:01;38.90;30.40
15013;DHT22;7603;49.432;11.418;2023-05-07T15:03:27;39.50;29.90
15013;DHT22;7603;49.432;11.418;2023-05-07T15:05:53;39.90;29.30
15013;DHT22;7603;49.432;11.418;2023-05-07T15:08:18;40.00;29.10
15013;DHT22;7603;49.432;11.418;2023-05-07T15:10:44;39.70;28.80
15013;DHT22;7603;49.432;11.418;2023-05-07T15:13:11;39.10;29.20
15013;DHT22;7603;49.432;11.418;2023-05-07T15:15:38;38.70;29.40
15013;DHT22;7603;49.432;11.418;2023-05-07T15:18:04;38.50;29.50
15013;DHT22;7603;49.432;11.418;2023-05-07T15:20:30;38.20;29.70
15013;DHT22;7603;49.432;11.418;2023-05-07T15:22:56;37.70;29.90
15013;DHT22;7603;49.432;11.418;2023-05-07T15:25:22;37.00;30.20
15013;DHT22;7603;49.432;11.418;2023-05-07T15:27:48;35.90;31.00
15013;DHT22;7603;49.432;11.418;2023-05-07T15:30:16;34.80;32.00
15013;DHT22;7603;49.432;11.418;2023-05-07T15:32:42;33.50;33.20
15013;DHT22;7603;49.432;11.418;2023-05-07T15:35:09;32.40;34.60
15013;DHT22;7603;49.432;11.418;2023-05-07T15:37:35;31.40;36.10
15013;DHT22;7603;49.432;11.418;2023-05-07T15:40:00;30.70;37.40